Time;durP1;ratioP1;P1;durP2;ratioP2;P2;SDS_P1;SDS_P2;PMS_P1;PMS_P2;Temp;Humidity;BMP_temperature;BMP_pressure;BME280_temperature;BME280_humidity;BME280_pressure;Samples;Min_cycle;Max_cycle;Signal;HPM_P1;HPM_P2
2022/11/14 00:02:18;;;;;;;42.60;24.35;;;7.60;99.90;;;;;;5075363;28;20036;-73
2022/11/14 00:04:48;;;;;;;42.00;24.58;;;7.30;99.90;;;;;;5057455;28;20032;-73
2022/11/14 00:07:15;;;;;;;43.50;22.98;;;7.40;99.90;;;;;;5074378;28;20462;-73
2022/11/14 00:09:43;;;;;;;38.35;22.35;;;7.40;99.90;;;;;;5073867;28;20076;-73
2022/11/14 00:12:09;;;;;;;40.17;24.45;;;7.60;99.90;;;;;;5074047;28;20093;-73
2022/11/14 00:14:35;;;;;;;43.17;24.52;;;7.40;99.90;;;;;;5073816;28;20498;-73
2022/11/14 00:17:02;;;;;;;42.80;26.17;;;7.40;99.90;;;;;;5074252;28;20085;-72
2022/11/14 00:19:27;;;;;;;38.13;23.08;;;7.60;99.90;;;;;;5073805;28;20097;-72
2022/11/14 00:21:53;;;;;;;37.75;21.40;;;7.50;99.90;;;;;;5075082;28;20124;-72
2022/11/14 00:24:19;;;;;;;40.88;22.60;;;7.50;99.90;;;;;;5073515;28;20075;-72
2022/11/14 00:26:44;;;;;;;40.78;23.20;;;7.40;99.90;;;;;;5074016;28;20036;-72
2022/11/14 00:29:14;;;;;;;39.97;23.75;;;7.60;99.90;;;;;;5073704;28;20048;-73
2022/11/14 00:31:40;;;;;;;41.88;23.98;;;7.60;99.90;;;;;;5073990;28;20036;-72
2022/11/14 00:34:06;;;;;;;41.45;25.00;;;7.70;99.90;;;;;;5073358;28;20040;-73
2022/11/14 00:36:32;;;;;;;44.03;24.77;;;7.50;99.90;;;;;;5073972;28;20044;-72
2022/11/14 00:38:58;;;;;;;51.97;27.27;;;7.70;99.90;;;;;;5073467;28;20043;-72
2022/11/14 00:41:24;;;;;;;47.03;28.83;;;7.60;99.90;;;;;;5056746;28;20560;-72
2022/11/14 00:43:49;;;;;;;52.33;28.90;;;7.50;99.90;;;;;;5073133;28;20410;-72
2022/11/14 00:46:15;;;;;;;51.67;30.75;;;7.60;99.90;;;;;;5074731;28;20079;-73
2022/11/14 00:48:41;;;;;;;52.72;30.30;;;7.50;99.90;;;;;;5073314;28;20490;-72
2022/11/14 00:51:06;;;;;;;57.90;31.52;;;7.70;99.90;;;;;;5073205;28;20054;-73
2022/11/14 00:53:32;;;;;;;54.25;32.05;;;7.70;99.90;;;;;;5072957;28;20028;-73
2022/11/14 00:55:57;;;;;;;52.90;32.60;;;7.50;99.90;;;;;;5073489;28;20469;-72
2022/11/14 00:58:23;;;;;;;52.70;30.85;;;7.80;99.90;;;;;;5073679;28;20036;-72
2022/11/14 01:00:50;;;;;;;56.67;32.92;;;7.60;99.90;;;;;;5056559;28;20514;-72
2022/11/14 01:03:15;;;;;;;55.53;33.00;;;7.60;99.90;;;;;;5072892;28;20528;-73
2022/11/14 01:05:42;;;;;;;57.92;34.58;;;7.60;99.90;;;;;;5073092;28;20072;-73
2022/11/14 01:08:08;;;;;;;65.65;34.95;;;7.60;99.90;;;;;;5072282;28;20051;-72
2022/11/14 01:10:37;;;;;;;52.75;31.25;;;7.70;99.90;;;;;;5072842;28;20041;-72
2022/11/14 01:13:02;;;;;;;62.25;35.25;;;7.70;99.90;;;;;;5072640;28;20498;-72
2022/11/14 01:15:28;;;;;;;62.50;34.45;;;7.70;99.90;;;;;;5074203;28;20123;-73
2022/11/14 01:17:53;;;;;;;58.35;35.17;;;7.80;99.90;;;;;;5072809;28;20166;-72
2022/11/14 01:20:19;;;;;;;60.55;35.33;;;7.70;99.90;;;;;;5073850;28;20040;-72
2022/11/14 01:22:44;;;;;;;60.47;37.08;;;7.70;99.90;;;;;;5073861;28;20033;-73
2022/11/14 01:25:10;;;;;;;59.63;34.90;;;7.60;99.90;;;;;;5072654;28;20036;-73
2022/11/14 01:27:35;;;;;;;58.67;35.40;;;7.50;99.90;;;;;;5072720;28;20176;-73
2022/11/14 01:30:01;;;;;;;64.97;36.35;;;7.50;99.90;;;;;;5072528;28;20068;-73
2022/11/14 01:32:27;;;;;;;63.08;36.38;;;7.70;99.90;;;;;;5072284;28;20079;-72
2022/11/14 01:34:52;;;;;;;60.15;35.53;;;7.50;99.90;;;;;;5072496;28;20076;-73
2022/11/14 01:37:18;;;;;;;59.97;34.55;;;7.60;99.90;;;;;;5072396;28;20098;-73
2022/11/14 01:39:43;;;;;;;64.65;37.45;;;7.40;99.90;;;;;;5072321;28;20037;-72
2022/11/14 01:42:09;;;;;;;57.17;34.20;;;7.40;99.90;;;;;;5072366;28;20041;-72
2022/11/14 01:45:21;;;;;;;65.30;36.72;;;7.50;99.90;;;;;;5072124;28;20035;-72
2022/11/14 01:47:46;;;;;;;62.38;36.22;;;7.50;99.90;;;;;;5072070;28;20043;-73
2022/11/14 01:50:12;;;;;;;59.33;34.63;;;7.30;99.90;;;;;;5055603;28;20040;-73
2022/11/14 01:52:39;;;;;;;61.47;36.35;;;7.30;99.90;;;;;;5073246;28;20040;-73
2022/11/14 01:55:08;;;;;;;67.68;39.45;;;7.50;99.90;;;;;;5072235;28;20040;-73
2022/11/14 01:57:39;;;;;;;62.75;36.30;;;7.30;99.90;;;;;;5072287;28;20527;-72
2022/11/14 02:00:08;;;;;;;66.63;37.42;;;7.40;99.90;;;;;;5071962;28;20040;-72
2022/11/14 02:02:34;;;;;;;61.10;36.42;;;7.30;99.90;;;;;;5071571;28;20379;-72
2022/11/14 02:05:04;;;;;;;63.55;35.78;;;7.40;99.90;;;;;;5055279;28;20048;-72
2022/11/14 02:07:33;;;;;;;63.17;35.78;;;7.50;99.90;;;;;;5063349;28;20040;-73
2022/11/14 02:10:03;;;;;;;63.70;35.83;;;7.40;99.90;;;;;;5051887;28;20045;-72
2022/11/14 02:12:29;;;;;;;63.67;36.55;;;7.50;99.90;;;;;;5051516;28;20049;-73
2022/11/14 02:14:56;;;;;;;65.05;37.25;;;7.50;99.90;;;;;;5051785;28;20059;-73
2022/11/14 02:17:23;;;;;;;62.35;37.20;;;7.30;99.90;;;;;;5051824;28;20056;-74
2022/11/14 02:20:18;;;;;;;65.75;37.10;;;7.50;99.90;;;;;;5050555;28;20052;-73
2022/11/14 02:22:43;;;;;;;67.95;39.33;;;7.50;99.90;;;;;;5034799;28;20125;-73
2022/11/14 02:25:11;;;;;;;65.10;37.58;;;7.50;99.90;;;;;;5035012;28;20076;-73
2022/11/14 02:27:39;;;;;;;62.78;38.58;;;7.50;99.90;;;;;;5051559;28;20033;-73
2022/11/14 02:30:07;;;;;;;62.22;35.92;;;7.30;99.90;;;;;;5051735;28;20049;-73
2022/11/14 02:32:32;;;;;;;67.15;37.00;;;7.30;99.90;;;;;;5051156;28;20072;-73
2022/11/14 02:34:58;;;;;;;67.97;36.55;;;7.30;99.90;;;;;;5051348;28;20149;-73
2022/11/14 02:37:23;;;;;;;68.38;35.88;;;7.50;99.90;;;;;;5051361;28;20045;-73
2022/11/14 02:39:49;;;;;;;67.85;38.15;;;7.50;99.90;;;;;;5052646;28;20048;-73
2022/11/14 02:42:14;;;;;;;66.50;36.30;;;7.30;99.90;;;;;;5051392;28;20147;-73
2022/11/14 02:44:40;;;;;;;67.50;35.22;;;7.50;99.90;;;;;;5052264;28;20495;-73
2022/11/14 02:47:05;;;;;;;66.95;35.85;;;7.40;99.90;;;;;;5051166;28;20037;-73
2022/11/14 02:49:31;;;;;;;70.82;38.05;;;7.60;99.90;;;;;;5051071;28;20107;-73
2022/11/14 02:51:57;;;;;;;65.45;36.75;;;7.60;99.90;;;;;;5052165;28;20037;-73
2022/11/14 02:54:22;;;;;;;70.90;39.22;;;7.50;99.90;;;;;;5051062;28;20037;-73
2022/11/14 02:56:47;;;;;;;69.40;37.47;;;7.40;99.90;;;;;;5051032;28;20045;-73
2022/11/14 02:59:13;;;;;;;65.18;36.92;;;7.70;99.90;;;;;;5051043;28;20045;-73
2022/11/14 03:01:38;;;;;;;73.20;39.35;;;7.60;99.90;;;;;;5050964;28;20522;-73
2022/11/14 03:04:04;;;;;;;72.88;39.75;;;7.60;99.90;;;;;;5050566;28;20037;-73
2022/11/14 03:06:30;;;;;;;71.60;38.72;;;7.70;99.90;;;;;;5050695;28;20082;-73
2022/11/14 03:08:55;;;;;;;72.00;38.05;;;7.50;99.90;;;;;;5050854;28;20041;-73
2022/11/14 03:11:21;;;;;;;68.97;38.60;;;7.40;99.90;;;;;;5050880;28;20651;-73
2022/11/14 03:13:46;;;;;;;71.00;38.50;;;7.50;99.90;;;;;;5034085;28;20045;-73
2022/11/14 03:16:13;;;;;;;75.20;38.70;;;7.50;99.90;;;;;;5050769;28;20041;-72
2022/11/14 03:18:39;;;;;;;73.30;40.72;;;7.70;99.90;;;;;;5050888;28;20049;-73
2022/11/14 03:21:10;;;;;;;75.10;39.58;;;7.50;99.90;;;;;;5050357;28;20116;-73
2022/11/14 03:23:36;;;;;;;73.85;41.03;;;7.50;99.90;;;;;;5033954;28;20065;-73
2022/11/14 03:26:04;;;;;;;68.65;40.25;;;7.50;99.90;;;;;;5033991;28;20068;-73
2022/11/14 03:28:30;;;;;;;69.85;39.55;;;7.50;99.90;;;;;;5050534;28;20040;-73
2022/11/14 03:30:56;;;;;;;73.97;38.95;;;7.40;99.90;;;;;;5050071;28;20122;-73
2022/11/14 03:33:22;;;;;;;72.68;40.90;;;7.50;99.90;;;;;;5050072;28;20041;-72
2022/11/14 03:35:51;;;;;;;75.70;41.58;;;7.50;99.90;;;;;;5050411;28;20052;-73
2022/11/14 03:38:18;;;;;;;71.30;38.08;;;7.50;99.90;;;;;;5050449;28;20045;-73
2022/11/14 03:40:44;;;;;;;74.68;40.67;;;7.70;99.90;;;;;;5050568;28;20049;-72
2022/11/14 03:43:10;;;;;;;62.72;37.17;;;7.60;99.90;;;;;;5050542;28;20398;-73
2022/11/14 03:45:36;;;;;;;66.05;38.15;;;7.40;99.90;;;;;;5050783;28;20045;-73
2022/11/14 03:48:02;;;;;;;70.95;39.97;;;7.50;99.90;;;;;;5033697;28;20048;-73
2022/11/14 03:50:28;;;;;;;71.63;39.28;;;7.40;99.90;;;;;;5050218;28;20041;-73
2022/11/14 03:52:53;;;;;;;69.32;39.97;;;7.50;99.90;;;;;;5049935;28;20041;-73
2022/11/14 03:55:19;;;;;;;68.35;39.58;;;7.50;99.90;;;;;;5050595;28;20056;-73
2022/11/14 03:57:44;;;;;;;65.13;39.00;;;7.70;99.90;;;;;;5050209;28;20495;-72
2022/11/14 04:00:11;;;;;;;65.35;37.58;;;7.50;99.90;;;;;;5051315;28;20048;-73
2022/11/14 04:02:36;;;;;;;70.40;37.47;;;7.60;99.90;;;;;;5050118;28;20049;-73
2022/11/14 04:05:02;;;;;;;60.92;34.28;;;7.60;99.90;;;;;;5050063;28;20044;-73
2022/11/14 04:07:27;;;;;;;62.78;37.72;;;7.50;99.90;;;;;;5050104;28;20048;-72
2022/11/14 04:09:53;;;;;;;60.13;36.53;;;7.50;99.90;;;;;;5050162;28;20041;-73
2022/11/14 04:12:18;;;;;;;61.15;35.63;;;7.60;99.90;;;;;;5051232;28;20438;-73
2022/11/14 04:14:44;;;;;;;61.20;35.40;;;7.60;99.90;;;;;;5049927;28;20124;-73
2022/11/14 04:17:09;;;;;;;56.63;33.72;;;7.60;99.90;;;;;;5050239;28;20093;-72
2022/11/14 04:19:35;;;;;;;55.28;32.13;;;7.50;99.90;;;;;;5051035;28;20037;-73
2022/11/14 04:22:01;;;;;;;51.53;32.65;;;7.60;99.90;;;;;;5050021;28;20072;-73
2022/11/14 04:24:26;;;;;;;54.65;32.90;;;7.50;99.90;;;;;;5049692;28;20048;-73
2022/11/14 04:26:52;;;;;;;59.47;33.20;;;7.50;99.90;;;;;;5033382;28;20072;-73
2022/11/14 04:29:17;;;;;;;57.63;33.75;;;7.40;99.90;;;;;;5051158;28;20048;-73
2022/11/14 04:31:43;;;;;;;56.80;32.45;;;7.50;99.90;;;;;;5033275;28;20080;-73
2022/11/14 04:34:08;;;;;;;59.33;34.22;;;7.60;99.90;;;;;;5049525;28;20136;-73
2022/11/14 04:36:34;;;;;;;54.88;31.83;;;7.60;99.90;;;;;;5049898;28;20040;-73
2022/11/14 04:39:00;;;;;;;58.47;32.42;;;7.50;99.90;;;;;;5049774;28;20056;-73
2022/11/14 04:41:25;;;;;;;59.83;35.63;;;7.60;99.90;;;;;;5049651;28;20116;-72
2022/11/14 04:43:51;;;;;;;55.70;33.17;;;7.40;99.90;;;;;;5053179;28;20068;-72
2022/11/14 04:46:17;;;;;;;54.20;32.15;;;7.30;99.90;;;;;;5054803;28;20036;-73
2022/11/14 04:48:42;;;;;;;54.10;32.47;;;7.30;99.90;;;;;;5053363;28;20048;-73
2022/11/14 04:51:08;;;;;;;53.65;31.55;;;7.50;99.90;;;;;;5054571;28;20043;-73
2022/11/14 04:53:33;;;;;;;50.00;29.95;;;7.50;99.90;;;;;;5053228;28;20037;-73
2022/11/14 04:55:59;;;;;;;58.20;33.60;;;7.50;99.90;;;;;;5036665;28;20094;-73
2022/11/14 04:58:24;;;;;;;57.53;33.25;;;7.30;99.90;;;;;;5054630;28;20111;-73
2022/11/14 05:00:50;;;;;;;58.17;34.60;;;7.50;99.90;;;;;;5075479;22;20525;-76
2022/11/14 05:03:15;;;;;;;59.17;32.92;;;7.40;99.90;;;;;;5035390;28;20048;-76
2022/11/14 05:05:41;;;;;;;55.38;32.33;;;7.50;99.90;;;;;;5036931;28;20041;-76
2022/11/14 05:08:06;;;;;;;57.33;32.83;;;7.40;99.90;;;;;;5036046;28;20522;-77
2022/11/14 05:10:32;;;;;;;58.05;33.20;;;7.50;99.90;;;;;;5036304;28;20048;-76
2022/11/14 05:12:57;;;;;;;59.97;33.28;;;7.50;99.90;;;;;;5035857;28;20110;-76
2022/11/14 05:15:23;;;;;;;55.97;32.65;;;7.30;99.90;;;;;;5036099;28;20471;-77
2022/11/14 05:17:48;;;;;;;56.97;33.42;;;7.30;99.90;;;;;;5036293;28;20048;-76
2022/11/14 05:20:14;;;;;;;53.67;31.95;;;7.30;99.90;;;;;;5036291;28;20111;-77
2022/11/14 05:22:40;;;;;;;58.60;33.10;;;7.30;99.90;;;;;;5019308;28;20071;-77
2022/11/14 05:25:06;;;;;;;62.42;34.22;;;7.40;99.90;;;;;;5036005;28;20033;-76
2022/11/14 05:27:32;;;;;;;61.42;33.45;;;7.50;99.90;;;;;;5036022;28;20064;-76
2022/11/14 05:29:57;;;;;;;61.42;33.95;;;7.20;99.90;;;;;;5036135;28;20521;-76
2022/11/14 05:32:23;;;;;;;57.95;32.20;;;7.40;99.90;;;;;;5035506;28;20465;-77
2022/11/14 05:34:48;;;;;;;59.25;34.35;;;7.30;99.90;;;;;;5036054;28;20041;-76
2022/11/14 05:37:14;;;;;;;57.15;34.03;;;7.30;99.90;;;;;;5035980;28;20047;-76
2022/11/14 05:39:39;;;;;;;59.40;34.10;;;7.30;99.90;;;;;;5036020;28;20098;-77
2022/11/14 05:42:05;;;;;;;60.08;32.72;;;7.10;99.90;;;;;;5019352;28;20036;-76
2022/11/14 05:44:31;;;;;;;60.80;34.53;;;7.30;99.90;;;;;;5019078;28;20094;-77
2022/11/14 05:46:56;;;;;;;62.67;34.15;;;7.30;99.90;;;;;;5036544;28;20124;-77
2022/11/14 05:49:22;;;;;;;59.25;33.90;;;7.10;99.90;;;;;;5036376;28;20406;-76
2022/11/14 05:51:48;;;;;;;55.78;32.40;;;7.20;99.90;;;;;;5020851;28;20049;-77
2022/11/14 05:54:13;;;;;;;54.10;32.60;;;7.10;99.90;;;;;;5039309;28;20044;-77
2022/11/14 05:56:39;;;;;;;59.35;32.20;;;7.10;99.90;;;;;;5040902;28;20047;-77
2022/11/14 05:59:04;;;;;;;57.63;32.05;;;7.30;99.90;;;;;;5038759;28;20045;-75
2022/11/14 06:01:30;;;;;;;60.92;33.95;;;7.30;99.90;;;;;;5037366;28;20406;-78
2022/11/14 06:03:56;;;;;;;59.90;33.45;;;7.10;99.90;;;;;;5020130;28;20135;-77
2022/11/14 06:06:22;;;;;;;60.85;32.55;;;7.20;99.90;;;;;;5038257;28;20045;-78
2022/11/14 06:08:48;;;;;;;62.17;34.45;;;6.90;99.90;;;;;;5039178;28;20040;-77
2022/11/14 06:11:16;;;;;;;60.13;31.88;;;7.00;99.90;;;;;;5021843;28;20037;-76
2022/11/14 06:13:42;;;;;;;60.83;32.20;;;7.10;99.90;;;;;;5015260;28;20041;-76
2022/11/14 06:16:13;;;;;;;58.40;32.55;;;6.90;99.90;;;;;;5015443;28;20128;-77
2022/11/14 06:18:39;;;;;;;59.60;33.17;;;6.90;99.90;;;;;;5016043;28;20499;-78
2022/11/14 06:21:16;;;;;;;62.75;33.90;;;7.10;99.90;;;;;;5019377;28;20045;-77
2022/11/14 06:23:43;;;;;;;64.70;32.97;;;6.90;99.90;;;;;;5021846;28;20041;-79
2022/11/14 06:26:30;;;;;;;59.00;33.35;;;7.00;99.90;;;;;;5018281;28;20135;-79
2022/11/14 06:28:56;;;;;;;61.63;33.55;;;7.10;99.90;;;;;;5018550;28;20034;-78
2022/11/14 06:31:22;;;;;;;63.53;32.45;;;6.90;99.90;;;;;;5006249;28;20191;-79
2022/11/14 06:33:48;;;;;;;55.85;32.90;;;7.10;99.90;;;;;;5003539;28;20499;-80
2022/11/14 06:36:14;;;;;;;62.00;34.47;;;7.00;99.90;;;;;;5002444;28;20084;-74
2022/11/14 06:38:41;;;;;;;59.17;33.70;;;6.90;99.90;;;;;;5014790;28;20037;-74
2022/11/14 06:41:20;;;;;;;64.28;34.83;;;7.00;99.90;;;;;;5014788;28;20570;-74
2022/11/14 06:43:48;;;;;;;64.63;34.55;;;7.00;99.90;;;;;;5014536;28;20073;-74
2022/11/14 06:46:16;;;;;;;67.00;33.47;;;7.00;99.90;;;;;;5014886;28;20064;-74
2022/11/14 06:48:43;;;;;;;64.45;33.95;;;6.80;99.90;;;;;;5014838;28;20042;-74
2022/11/14 06:51:10;;;;;;;65.53;35.10;;;6.90;99.90;;;;;;5014730;28;20041;-74
2022/11/14 06:53:36;;;;;;;66.82;34.78;;;7.00;99.90;;;;;;4998128;28;20088;-74
2022/11/14 06:56:06;;;;;;;59.15;34.45;;;6.80;99.90;;;;;;5014652;28;20460;-73
2022/11/14 06:58:35;;;;;;;62.67;33.15;;;7.00;99.90;;;;;;5014656;28;20562;-73
2022/11/14 07:01:10;;;;;;;64.13;34.58;;;6.90;99.90;;;;;;5014277;28;20044;-74
2022/11/14 07:03:36;;;;;;;60.15;33.65;;;6.80;99.90;;;;;;5014313;28;20050;-74
2022/11/14 07:06:03;;;;;;;61.78;33.60;;;6.80;99.90;;;;;;4997959;28;20237;-73
2022/11/14 07:08:29;;;;;;;58.50;34.10;;;6.90;99.90;;;;;;5014591;28;20037;-73
2022/11/14 07:11:03;;;;;;;58.58;33.22;;;6.80;99.90;;;;;;5014533;28;20040;-73
2022/11/14 07:13:30;;;;;;;59.05;32.30;;;6.80;99.90;;;;;;5014703;28;20045;-73
2022/11/14 07:15:56;;;;;;;62.35;35.45;;;6.80;99.90;;;;;;4998124;28;20507;-73
2022/11/14 07:18:21;;;;;;;63.10;35.20;;;7.00;99.90;;;;;;4997894;28;20037;-73
2022/11/14 07:20:47;;;;;;;62.20;34.60;;;7.10;99.90;;;;;;5014372;28;20124;-73
2022/11/14 07:23:13;;;;;;;65.93;34.35;;;6.80;99.90;;;;;;5014506;28;20128;-73
2022/11/14 07:25:39;;;;;;;66.78;36.78;;;7.10;99.90;;;;;;5014361;28;20495;-73
2022/11/14 07:28:04;;;;;;;64.45;35.13;;;6.90;99.90;;;;;;4998016;28;20086;-73
2022/11/14 07:30:30;;;;;;;64.47;32.92;;;6.90;99.90;;;;;;4997826;28;20128;-73
2022/11/14 07:32:56;;;;;;;62.60;33.53;;;6.80;99.90;;;;;;5013693;28;20052;-73
2022/11/14 07:35:22;;;;;;;60.45;32.58;;;7.00;99.90;;;;;;5014305;28;20049;-73
2022/11/14 07:37:49;;;;;;;62.08;34.45;;;7.00;99.90;;;;;;5014250;28;20446;-73
2022/11/14 07:40:15;;;;;;;65.60;34.42;;;6.80;99.90;;;;;;5013982;28;20048;-73
2022/11/14 07:42:41;;;;;;;65.18;33.42;;;6.90;99.90;;;;;;5031551;28;20378;-74
2022/11/14 07:45:07;;;;;;;62.72;32.60;;;7.00;99.90;;;;;;5013930;28;20039;-73
2022/11/14 07:47:32;;;;;;;56.40;31.42;;;6.80;99.90;;;;;;5013799;28;20454;-73
2022/11/14 07:49:58;;;;;;;70.15;35.60;;;6.80;99.90;;;;;;5031731;28;20103;-74
2022/11/14 07:52:23;;;;;;;58.70;31.88;;;6.90;99.90;;;;;;5013540;28;20045;-72
2022/11/14 07:54:49;;;;;;;63.30;34.25;;;6.70;99.90;;;;;;5031581;28;20041;-74
2022/11/14 07:57:14;;;;;;;55.03;32.63;;;6.90;99.90;;;;;;5013988;28;20041;-73
2022/11/14 07:59:40;;;;;;;60.50;33.28;;;6.70;99.90;;;;;;5013781;28;20041;-72
2022/11/14 08:02:12;;;;;;;60.75;32.90;;;6.90;99.90;;;;;;5013927;28;20108;-73
2022/11/14 08:04:39;;;;;;;62.75;32.92;;;6.80;99.90;;;;;;5013856;28;20038;-75
2022/11/14 08:07:05;;;;;;;64.43;32.05;;;6.70;99.90;;;;;;5013945;28;20053;-73
2022/11/14 08:09:30;;;;;;;65.93;33.50;;;6.70;99.90;;;;;;5014106;28;20045;-73
2022/11/14 08:11:56;;;;;;;67.93;35.00;;;6.80;99.90;;;;;;5014024;28;20038;-74
2022/11/14 08:14:21;;;;;;;59.65;32.40;;;6.80;99.90;;;;;;5013503;28;20041;-74
2022/11/14 08:16:48;;;;;;;60.30;34.17;;;6.80;99.90;;;;;;5015897;28;20403;-74
2022/11/14 08:19:17;;;;;;;63.95;33.30;;;6.90;99.90;;;;;;5017717;28;20046;-74
2022/11/14 08:21:43;;;;;;;60.72;33.47;;;6.80;99.90;;;;;;5017495;28;20034;-74
2022/11/14 08:24:09;;;;;;;61.63;34.42;;;7.00;99.90;;;;;;5017521;28;20041;-73
2022/11/14 08:26:34;;;;;;;64.53;35.65;;;7.00;99.90;;;;;;5017430;28;20033;-73
2022/11/14 08:29:00;;;;;;;65.20;35.55;;;7.00;99.90;;;;;;5017281;28;20038;-73
2022/11/14 08:31:26;;;;;;;59.90;33.08;;;7.00;99.90;;;;;;5034945;28;20091;-73
2022/11/14 08:33:52;;;;;;;64.47;36.38;;;6.80;99.90;;;;;;5017475;28;20044;-73
2022/11/14 08:36:17;;;;;;;58.58;32.95;;;7.00;99.90;;;;;;5001277;28;20034;-73
2022/11/14 08:38:43;;;;;;;81.70;45.67;;;7.00;99.90;;;;;;5017366;28;20087;-74
2022/11/14 08:41:09;;;;;;;103.53;54.83;;;6.90;99.90;;;;;;5017132;28;20053;-74
2022/11/14 08:43:34;;;;;;;103.65;55.38;;;7.00;99.90;;;;;;5016985;28;20037;-73
2022/11/14 08:46:02;;;;;;;101.88;54.40;;;6.90;99.90;;;;;;5017103;28;20091;-74
2022/11/14 08:48:28;;;;;;;93.70;52.83;;;6.80;99.90;;;;;;5017283;28;20042;-73
2022/11/14 08:50:54;;;;;;;113.78;58.92;;;6.80;99.90;;;;;;5016882;28;20073;-73
2022/11/14 08:53:20;;;;;;;100.28;53.05;;;6.80;99.90;;;;;;5016588;28;20476;-74
2022/11/14 08:55:47;;;;;;;79.15;44.60;;;7.00;99.90;;;;;;5017098;28;20045;-74
2022/11/14 08:58:13;;;;;;;67.95;38.67;;;6.90;99.90;;;;;;5034358;28;20057;-73
2022/11/14 09:00:38;;;;;;;65.95;35.45;;;6.80;99.90;;;;;;5016784;28;20098;-73
2022/11/14 09:03:08;;;;;;;61.72;32.38;;;6.90;99.90;;;;;;5016675;28;20037;-74
2022/11/14 09:05:35;;;;;;;58.55;33.45;;;7.00;99.90;;;;;;5016665;28;20069;-74
2022/11/14 09:08:00;;;;;;;56.35;30.77;;;7.10;99.90;;;;;;5016712;28;20097;-75
2022/11/14 09:10:26;;;;;;;56.97;32.85;;;7.10;99.90;;;;;;5016540;28;20530;-74
2022/11/14 09:12:56;;;;;;;59.13;33.83;;;7.20;99.90;;;;;;5033856;28;20407;-75
2022/11/14 09:15:21;;;;;;;60.65;34.53;;;7.20;99.90;;;;;;5016596;28;20073;-74
2022/11/14 09:17:47;;;;;;;56.85;33.13;;;7.20;99.90;;;;;;5016633;28;20409;-74
2022/11/14 09:20:13;;;;;;;55.63;32.85;;;7.30;99.90;;;;;;5016389;28;20418;-74
2022/11/14 09:22:38;;;;;;;58.22;33.88;;;7.40;99.90;;;;;;5016021;28;20048;-74
2022/11/14 09:25:05;;;;;;;69.88;37.97;;;7.20;99.90;;;;;;5016339;28;20038;-74
2022/11/14 09:27:30;;;;;;;63.80;36.95;;;7.20;99.90;;;;;;5015820;28;20124;-74
2022/11/14 09:29:56;;;;;;;66.07;35.13;;;7.40;99.90;;;;;;5016123;28;20087;-74
2022/11/14 09:32:21;;;;;;;61.20;36.15;;;7.40;99.90;;;;;;5015830;28;20049;-74
2022/11/14 09:34:47;;;;;;;60.15;33.42;;;7.30;99.90;;;;;;4999888;28;20449;-74
2022/11/14 09:37:12;;;;;;;66.15;35.95;;;7.20;99.90;;;;;;5016131;28;20495;-74
2022/11/14 09:39:39;;;;;;;61.30;35.47;;;7.30;99.90;;;;;;5016229;28;20388;-74
2022/11/14 09:42:42;;;;;;;59.70;34.72;;;7.20;99.90;;;;;;5015752;28;20037;-75
2022/11/14 09:45:13;;;;;;;61.57;36.23;;;7.20;99.90;;;;;;5015881;28;20073;-76
2022/11/14 09:48:09;;;;;;;54.70;32.72;;;7.20;99.90;;;;;;5016004;28;20091;-74
2022/11/14 09:50:45;;;;;;;59.55;33.42;;;7.40;99.90;;;;;;5015902;28;20045;-75
2022/11/14 09:53:27;;;;;;;56.50;31.58;;;7.30;99.90;;;;;;4999538;28;20041;-74
2022/11/14 09:55:53;;;;;;;53.10;31.27;;;7.50;99.90;;;;;;5015739;28;20498;-75
2022/11/14 09:58:20;;;;;;;55.83;32.47;;;7.50;99.90;;;;;;4999400;28;20053;-75
2022/11/14 10:01:07;;;;;;;56.17;32.17;;;7.50;99.90;;;;;;5015148;28;20053;-75
2022/11/14 10:03:41;;;;;;;67.55;36.40;;;7.50;99.90;;;;;;5015294;28;20045;-75
2022/11/14 10:06:17;;;;;;;62.70;36.67;;;7.60;99.90;;;;;;5015603;28;20045;-75
2022/11/14 10:08:58;;;;;;;63.33;35.40;;;7.60;99.90;;;;;;5015835;28;20037;-75
2022/11/14 10:11:35;;;;;;;65.72;37.22;;;7.70;99.90;;;;;;4999189;28;20510;-75
2022/11/14 10:14:10;;;;;;;63.38;36.38;;;7.60;99.90;;;;;;4998890;28;20044;-75
2022/11/14 10:17:01;;;;;;;72.63;42.95;;;7.70;99.90;;;;;;5015503;28;20041;-75
2022/11/14 10:19:48;;;;;;;70.18;41.13;;;7.70;99.90;;;;;;5015370;28;20052;-75
2022/11/14 10:22:46;;;;;;;68.80;38.58;;;7.50;99.90;;;;;;5015115;28;20048;-75
2022/11/14 10:25:39;;;;;;;55.13;32.50;;;7.50;99.90;;;;;;5015309;28;20045;-76
2022/11/14 10:28:38;;;;;;;59.05;33.67;;;7.60;99.90;;;;;;5015129;28;20041;-75
2022/11/14 10:31:23;;;;;;;52.75;31.90;;;7.70;99.90;;;;;;5015251;28;20068;-73
2022/11/14 10:33:58;;;;;;;49.40;30.75;;;7.60;99.90;;;;;;4998307;28;20057;-74
2022/11/14 10:36:46;;;;;;;58.85;33.97;;;7.50;99.90;;;;;;5019271;28;20045;-76
2022/11/14 10:39:43;;;;;;;61.97;36.42;;;7.60;99.90;;;;;;5020582;28;20099;-76
2022/11/14 10:42:15;;;;;;;66.78;37.08;;;7.50;99.90;;;;;;4998846;28;20053;-77
2022/11/14 10:44:54;;;;;;;57.45;32.03;;;7.60;99.90;;;;;;5015005;28;20037;-77
2022/11/14 10:47:23;;;;;;;60.47;33.45;;;7.50;99.90;;;;;;5015002;28;20041;-76
2022/11/14 10:49:54;;;;;;;49.47;30.33;;;7.60;99.90;;;;;;4998679;28;20037;-77
2022/11/14 10:52:23;;;;;;;52.15;31.00;;;7.60;99.90;;;;;;5014708;28;20037;-76
2022/11/14 10:54:59;;;;;;;54.00;30.10;;;7.60;99.90;;;;;;5014920;28;20049;-77
2022/11/14 10:57:24;;;;;;;52.00;30.40;;;7.70;99.90;;;;;;4998636;28;20061;-76
2022/11/14 10:59:52;;;;;;;52.88;30.80;;;7.60;99.90;;;;;;5014676;28;20049;-76
2022/11/14 11:02:17;;;;;;;52.08;30.88;;;7.70;99.90;;;;;;5072676;23;20127;-74
2022/11/14 11:04:45;;;;;;;51.55;30.02;;;7.60;99.90;;;;;;5090794;28;20072;-74
2022/11/14 11:11:28;;;;;;;55.65;30.55;;;7.60;99.90;;;;;;5091962;28;20036;-73
2022/11/14 11:12:50;;;;;;;54.97;30.23;;;7.70;99.90;;;;;;5091931;28;20101;-74
2022/11/14 11:15:30;;;;;;;51.80;30.35;;;7.80;99.90;;;;;;5090891;28;20438;-73
2022/11/14 11:18:01;;;;;;;49.25;29.77;;;7.80;99.90;;;;;;5092011;28;20512;-73
2022/11/14 11:20:26;;;;;;;53.40;31.13;;;7.90;99.90;;;;;;5090742;28;20044;-73
2022/11/14 11:23:05;;;;;;;54.33;32.58;;;7.80;99.90;;;;;;5089170;28;20032;-73
2022/11/14 11:25:32;;;;;;;51.20;30.23;;;7.90;99.90;;;;;;5083452;28;20032;-74
2022/11/14 11:28:18;;;;;;;51.30;29.85;;;7.90;99.90;;;;;;5089100;28;20040;-73
2022/11/14 11:30:59;;;;;;;49.92;30.60;;;8.00;99.90;;;;;;5092138;28;20047;-73
2022/11/14 11:33:36;;;;;;;49.50;30.85;;;8.00;99.90;;;;;;5091647;28;20039;-73
2022/11/14 11:36:09;;;;;;;50.70;29.48;;;8.10;99.90;;;;;;5091918;28;20040;-74
2022/11/14 11:38:35;;;;;;;47.97;29.95;;;8.10;99.90;;;;;;5090502;28;20058;-73
2022/11/14 11:41:23;;;;;;;47.63;28.48;;;8.10;99.90;;;;;;5091738;28;20044;-73
2022/11/14 11:43:55;;;;;;;48.30;29.10;;;8.10;99.90;;;;;;5090264;28;20028;-74
2022/11/14 11:46:45;;;;;;;48.67;29.75;;;8.20;99.90;;;;;;5090759;28;20498;-74
2022/11/14 11:49:23;;;;;;;51.65;29.50;;;8.20;99.90;;;;;;5091630;28;20043;-73
2022/11/14 11:51:53;;;;;;;46.33;29.08;;;8.30;99.90;;;;;;5090066;28;20043;-73
2022/11/14 11:54:23;;;;;;;49.50;29.08;;;8.40;99.90;;;;;;5091656;28;20075;-73
2022/11/14 11:56:54;;;;;;;44.95;27.90;;;8.40;99.90;;;;;;5091619;28;20401;-73
2022/11/14 11:59:32;;;;;;;46.53;29.27;;;8.60;99.90;;;;;;5090467;28;20047;-73
2022/11/14 12:02:10;;;;;;;46.17;27.35;;;8.60;99.90;;;;;;5090141;28;20485;-73
2022/11/14 12:04:35;;;;;;;46.33;28.90;;;8.60;99.90;;;;;;5090083;28;20036;-73
2022/11/14 12:07:17;;;;;;;46.75;28.90;;;8.70;99.90;;;;;;5090237;28;20047;-74
2022/11/14 12:09:43;;;;;;;47.60;28.83;;;8.70;99.90;;;;;;5091588;28;20032;-74
2022/11/14 12:12:38;;;;;;;43.53;27.80;;;8.80;99.90;;;;;;5090128;28;20044;-74
2022/11/14 12:15:41;;;;;;;46.10;28.83;;;8.80;99.90;;;;;;5090298;28;20092;-73
2022/11/14 12:18:35;;;;;;;46.05;26.77;;;8.80;99.90;;;;;;5090441;28;20036;-73
2022/11/14 12:21:04;;;;;;;;;;;8.80;99.90;;;;;;5090603;28;20101;-73
2022/11/14 12:24:12;;;;;;;46.22;27.73;;;8.80;99.90;;;;;;5091168;28;19937;-73
2022/11/14 12:26:58;;;;;;;48.03;28.25;;;8.70;99.90;;;;;;5091404;28;20044;-74
2022/11/14 12:29:54;;;;;;;42.97;26.98;;;8.80;99.90;;;;;;5091650;28;20047;-73
2022/11/14 12:32:33;;;;;;;48.10;29.25;;;8.80;99.90;;;;;;5072093;28;20041;-68
2022/11/14 12:35:03;;;;;;;46.53;27.52;;;9.00;99.90;;;;;;5089984;28;20063;-68
2022/11/14 12:37:42;;;;;;;46.55;26.83;;;9.00;99.90;;;;;;5085641;28;20047;-69
2022/11/14 12:40:20;;;;;;;45.88;26.55;;;9.10;99.90;;;;;;5070826;28;20044;-69
2022/11/14 12:42:47;;;;;;;45.92;26.27;;;9.20;99.90;;;;;;5070689;28;20625;-69
2022/11/14 12:45:40;;;;;;;45.78;29.05;;;9.30;99.90;;;;;;5070995;28;20054;-68
2022/11/14 12:48:21;;;;;;;46.70;27.77;;;9.30;99.90;;;;;;5071067;28;20097;-68
2022/11/14 12:50:46;;;;;;;42.75;26.58;;;9.30;99.90;;;;;;5071106;28;20041;-69
2022/11/14 12:53:36;;;;;;;47.03;27.50;;;9.30;99.90;;;;;;5070564;28;20036;-69